Time;durP1;ratioP1;P1;durP2;ratioP2;P2;SDS_P1;SDS_P2;PMS_P1;PMS_P2;Temp;Humidity;BMP_temperature;BMP_pressure;BME280_temperature;BME280_humidity;BME280_pressure;Samples;Min_cycle;Max_cycle;Signal;HPM_P1;HPM_P2
2023/01/16 00:01:12;;;;;;;2.97;1.83;;;;;;;8.46;88.69;98959.78;4990073;28;20034;-66
2023/01/16 00:03:37;;;;;;;2.17;1.42;;;;;;;8.50;87.72;98947.13;4988847;28;20034;-68
2023/01/16 00:06:02;;;;;;;1.75;1.42;;;;;;;8.48;88.23;98958.25;4988166;28;20036;-68
2023/01/16 00:08:28;;;;;;;2.78;1.80;;;;;;;8.66;87.25;98959.03;4990464;28;20112;-68
2023/01/16 00:10:53;;;;;;;2.70;1.73;;;;;;;8.69;86.68;98952.88;4984411;28;20120;-65
2023/01/16 00:13:19;;;;;;;3.08;1.45;;;;;;;8.34;88.18;98954.78;4991517;28;20475;-66
2023/01/16 00:15:46;;;;;;;3.28;1.52;;;;;;;8.41;88.90;98944.84;4989954;28;20027;-66
2023/01/16 00:18:32;;;;;;;4.18;1.50;;;;;;;8.44;88.56;98952.09;4979208;28;20081;-66
2023/01/16 00:20:58;;;;;;;1.65;1.27;;;;;;;8.39;88.56;98941.78;4940568;29;20052;-67
2023/01/16 00:23:23;;;;;;;2.60;1.15;;;;;;;8.39;89.39;98949.03;4944578;29;20043;-66
2023/01/16 00:25:49;;;;;;;3.15;1.17;;;;;;;8.39;89.27;98944.44;4939664;29;20412;-66
2023/01/16 00:28:14;;;;;;;2.65;1.50;;;;;;;8.45;89.06;98945.59;4945030;29;20065;-66
2023/01/16 00:30:40;;;;;;;3.95;1.80;;;;;;;8.57;88.91;98939.88;4934779;29;20039;-68
2023/01/16 00:33:06;;;;;;;4.55;1.42;;;;;;;8.59;88.41;98937.56;4935202;29;20481;-66
2023/01/16 00:35:32;;;;;;;1.50;1.13;;;;;;;8.52;88.35;98940.25;4943001;29;20036;-66
2023/01/16 00:37:57;;;;;;;2.20;1.38;;;;;;;8.53;88.54;98939.09;4940925;29;20047;-66
2023/01/16 00:40:23;;;;;;;1.27;1.17;;;;;;;8.50;88.61;98945.22;4939336;29;20058;-66
2023/01/16 00:42:49;;;;;;;1.45;1.15;;;;;;;8.39;88.87;98933.72;4940308;29;20054;-66
2023/01/16 00:45:17;;;;;;;1.13;1.02;;;;;;;8.37;89.69;98930.66;4937363;29;20035;-66
2023/01/16 00:47:43;;;;;;;5.50;1.40;;;;;;;8.50;89.27;98922.97;4937375;29;20047;-66
2023/01/16 00:50:09;;;;;;;1.40;0.93;;;;;;;8.50;89.36;98920.31;4929402;29;20106;-66
2023/01/16 00:52:35;;;;;;;5.47;1.42;;;;;;;8.50;88.41;98923.75;4916954;29;20123;-66
2023/01/16 00:55:00;;;;;;;0.80;0.80;;;;;;;8.65;88.27;98921.84;4916541;29;20110;-66
2023/01/16 00:57:26;;;;;;;1.13;1.05;;;;;;;8.50;88.98;98928.34;4948786;28;20042;-66
2023/01/16 00:59:51;;;;;;;1.63;1.08;;;;;;;8.55;88.37;98915.34;4991243;28;20026;-66
2023/01/16 01:02:17;;;;;;;0.77;0.77;;;;;;;8.55;87.85;98914.56;4992685;28;20402;-66
2023/01/16 01:04:42;;;;;;;4.18;0.88;;;;;;;8.62;88.14;98909.19;4993740;28;20034;-66
2023/01/16 01:07:08;;;;;;;1.70;1.13;;;;;;;8.68;87.23;98923.75;4991110;28;20041;-66
2023/01/16 01:09:33;;;;;;;3.88;1.30;;;;;;;8.40;87.73;98916.47;4994199;28;20402;-66
2023/01/16 01:11:59;;;;;;;1.58;1.48;;;;;;;8.57;88.01;98913.03;4993661;28;20060;-66
2023/01/16 01:14:25;;;;;;;2.85;1.13;;;;;;;8.47;88.39;98910.34;4991062;28;20037;-66
2023/01/16 01:16:51;;;;;;;3.17;0.95;;;;;;;8.51;87.59;98903.84;4993239;28;20030;-67
2023/01/16 01:19:16;;;;;;;1.10;1.00;;;;;;;8.49;88.26;98906.16;4994071;28;20579;-67
2023/01/16 01:21:42;;;;;;;1.25;1.02;;;;;;;8.51;87.07;98917.25;4992808;28;20026;-66
2023/01/16 01:24:08;;;;;;;10.30;1.38;;;;;;;8.64;87.03;98907.66;4993288;28;20045;-67
2023/01/16 01:26:33;;;;;;;2.67;1.02;;;;;;;8.65;86.65;98901.13;4992435;28;20487;-66
2023/01/16 01:28:59;;;;;;;1.20;0.98;;;;;;;8.40;87.10;98903.06;4988649;28;20117;-67
2023/01/16 01:31:24;;;;;;;0.70;0.70;;;;;;;8.31;87.66;98904.59;4989855;28;20122;-67
2023/01/16 01:33:50;;;;;;;2.50;1.17;;;;;;;8.47;87.80;98907.66;4991738;28;20036;-67
2023/01/16 01:36:15;;;;;;;1.17;0.88;;;;;;;8.56;86.69;98898.09;4992376;28;20038;-67
2023/01/16 01:38:40;;;;;;;0.60;0.60;;;;;;;8.42;86.72;98898.06;4993905;28;20053;-67
2023/01/16 01:41:06;;;;;;;1.05;0.70;;;;;;;8.30;88.08;98885.06;4987327;28;20034;-67
2023/01/16 01:43:50;;;;;;;1.38;0.90;;;;;;;8.37;87.15;98876.25;4991937;28;20125;-67
2023/01/16 01:46:30;;;;;;;4.03;0.70;;;;;;;8.31;87.17;98875.09;4993290;28;20057;-67
2023/01/16 01:49:16;;;;;;;1.60;0.80;;;;;;;8.28;86.85;98873.19;4992518;28;20398;-66
2023/01/16 01:51:42;;;;;;;2.42;1.25;;;;;;;8.41;86.58;98868.97;4991558;28;20038;-66
2023/01/16 01:54:16;;;;;;;2.42;1.13;;;;;;;8.46;86.31;98871.28;4989115;28;20070;-66
2023/01/16 01:56:47;;;;;;;1.48;0.93;;;;;;;8.48;85.53;98863.63;4991766;28;20057;-67
2023/01/16 01:59:22;;;;;;;0.93;0.90;;;;;;;8.38;86.24;98867.06;4990648;28;20459;-67
2023/01/16 02:01:48;;;;;;;0.60;0.57;;;;;;;8.33;85.86;98860.16;4988071;28;20478;-66
2023/01/16 02:04:18;;;;;;;1.67;1.23;;;;;;;8.36;85.42;98851.38;4986296;28;20049;-67
2023/01/16 02:06:48;;;;;;;0.63;0.63;;;;;;;8.32;85.86;98847.91;4992223;28;20030;-67
2023/01/16 02:09:15;;;;;;;0.60;0.60;;;;;;;8.39;85.61;98839.09;4990928;28;20297;-66
2023/01/16 02:11:54;;;;;;;1.10;0.75;;;;;;;8.49;85.08;98839.09;4993557;28;20415;-67
2023/01/16 02:14:40;;;;;;;2.40;0.75;;;;;;;8.53;85.13;98841.75;4992182;28;20034;-67
2023/01/16 02:20:08;;;;;;;2.63;0.80;;;;;;;8.51;85.85;98841.38;4941373;29;20054;-67
2023/01/16 02:22:34;;;;;;;7.28;0.73;;;;;;;8.34;86.01;98844.84;4932918;29;20047;-67
2023/01/16 02:25:21;;;;;;;0.80;0.80;;;;;;;8.56;84.96;98839.06;4931597;28;20444;-67
2023/01/16 02:27:55;;;;;;;0.93;0.93;;;;;;;8.34;85.50;98847.53;4935130;29;20047;-67
2023/01/16 02:30:46;;;;;;;0.70;0.52;;;;;;;8.18;85.88;98848.66;4940676;29;20067;-67
2023/01/16 02:33:27;;;;;;;;;;;;;;;8.19;86.68;98833.31;4928452;29;20051;-66
2023/01/16 02:36:10;;;;;;;0.50;0.50;;;;;;;8.29;85.80;98832.56;4940624;29;19915;-67
2023/01/16 02:38:54;;;;;;;3.50;1.00;;;;;;;8.43;85.11;98823.75;4913988;29;20487;-67
2023/01/16 02:41:26;;;;;;;0.88;0.68;;;;;;;7.97;86.25;98823.75;4933321;29;20051;-67
2023/01/16 02:44:23;;;;;;;0.68;0.68;;;;;;;7.82;87.75;98819.53;4915753;29;20054;-67
2023/01/16 02:47:26;;;;;;;0.35;0.35;;;;;;;8.01;86.52;98819.16;4932604;29;20091;-67
2023/01/16 02:50:10;;;;;;;5.63;0.52;;;;;;;8.16;85.74;98810.75;4933443;29;20049;-67
2023/01/16 02:52:44;;;;;;;0.60;0.60;;;;;;;8.04;86.60;98802.31;4931514;29;20059;-66
2023/01/16 02:55:33;;;;;;;0.52;0.52;;;;;;;8.09;86.34;98800.00;4986465;28;20056;-67
2023/01/16 02:58:03;;;;;;;4.90;1.05;;;;;;;8.06;86.36;98794.66;4991164;28;20117;-67
2023/01/16 03:00:29;;;;;;;4.25;0.60;;;;;;;7.98;87.13;98801.16;4990673;28;20057;-67
2023/01/16 03:02:55;;;;;;;0.60;0.60;;;;;;;8.02;86.71;98794.66;4988261;28;20034;-67
2023/01/16 03:05:22;;;;;;;0.75;0.73;;;;;;;8.05;86.43;98788.50;4993021;28;20042;-67
2023/01/16 03:08:02;;;;;;;0.60;0.60;;;;;;;8.13;85.96;98784.69;4991657;28;20068;-67
2023/01/16 03:10:37;;;;;;;0.60;0.60;;;;;;;8.12;86.09;98790.44;4987889;28;20048;-66
2023/01/16 03:13:27;;;;;;;0.68;0.60;;;;;;;8.01;87.24;98784.31;4989706;28;20041;-66
2023/01/16 03:16:00;;;;;;;0.73;0.70;;;;;;;7.95;86.78;98769.78;4971561;28;20038;-67
2023/01/16 03:18:25;;;;;;;0.32;0.32;;;;;;;7.92;88.05;98773.97;4990657;28;20030;-67
2023/01/16 03:20:53;;;;;;;2.42;0.73;;;;;;;7.89;87.67;98768.63;4980796;28;20578;-66
2023/01/16 03:23:31;;;;;;;1.50;0.50;;;;;;;7.84;88.24;98772.44;4990747;28;20042;-67
2023/01/16 03:26:36;;;;;;;0.60;0.60;;;;;;;7.89;88.56;98763.25;4991336;28;20046;-67
2023/01/16 03:29:18;;;;;;;1.73;0.68;;;;;;;7.93;88.01;98764.78;4971648;28;20387;-67
2023/01/16 03:31:56;;;;;;;2.50;0.70;;;;;;;7.94;88.16;98752.91;4976766;28;20110;-67
2023/01/16 03:34:34;;;;;;;0.52;0.52;;;;;;;8.04;87.76;98751.38;4990470;28;20391;-67
2023/01/16 03:37:34;;;;;;;1.75;0.70;;;;;;;7.79;88.04;98742.59;4993519;28;20042;-67
2023/01/16 03:40:03;;;;;;;0.47;0.47;;;;;;;7.88;87.91;98737.59;4965073;28;20104;-67
2023/01/16 03:43:11;;;;;;;1.70;0.55;;;;;;;7.83;88.64;98740.66;4988272;28;20046;-67
2023/01/16 03:45:45;;;;;;;0.52;0.43;;;;;;;7.99;88.24;98736.44;4977300;28;20057;-67
2023/01/16 03:48:17;;;;;;;0.57;0.57;;;;;;;7.88;88.24;98735.69;4987341;28;20114;-67
2023/01/16 03:50:50;;;;;;;0.40;0.40;;;;;;;7.99;88.98;98733.00;4986129;28;20050;-67
2023/01/16 03:53:23;;;;;;;0.60;0.52;;;;;;;8.03;88.66;98733.78;4989701;28;20087;-67
2023/01/16 03:56:00;;;;;;;0.50;0.50;;;;;;;7.87;88.24;98728.03;4993950;28;20030;-67
2023/01/16 03:58:38;;;;;;;0.90;0.90;;;;;;;8.00;88.03;98723.81;4982545;28;20034;-67
2023/01/16 04:01:21;;;;;;;0.95;0.68;;;;;;;8.01;87.50;98715.38;4989262;28;20038;-67
2023/01/16 04:03:52;;;;;;;0.52;0.52;;;;;;;8.10;87.83;98717.69;4976260;28;20287;-67
2023/01/16 04:06:29;;;;;;;1.20;0.68;;;;;;;7.95;87.02;98714.25;4988763;28;20034;-67
2023/01/16 04:08:57;;;;;;;9.35;1.10;;;;;;;7.97;87.76;98713.88;4990399;28;20550;-67
2023/01/16 04:11:25;;;;;;;0.40;0.40;;;;;;;7.87;87.93;98707.38;4989824;28;20398;-67
2023/01/16 04:13:54;;;;;;;3.08;0.60;;;;;;;7.86;88.32;98708.50;4987961;28;20049;-67
2023/01/16 04:16:21;;;;;;;0.38;0.38;;;;;;;7.91;87.50;98699.31;4987962;28;20038;-67
2023/01/16 04:18:49;;;;;;;0.70;0.70;;;;;;;7.92;87.62;98700.84;4990752;28;20030;-67
2023/01/16 04:21:14;;;;;;;1.95;0.80;;;;;;;7.84;86.95;98696.66;4989482;28;20035;-67
2023/01/16 04:23:41;;;;;;;0.40;0.40;;;;;;;7.79;87.90;98699.72;4988979;28;20041;-67
2023/01/16 04:26:06;;;;;;;1.70;0.85;;;;;;;7.81;88.17;98690.16;4991413;28;20085;-67
2023/01/16 04:28:31;;;;;;;0.47;0.47;;;;;;;7.62;88.57;98684.44;4994244;28;20310;-67
2023/01/16 04:30:57;;;;;;;1.75;0.82;;;;;;;7.89;87.94;98672.94;4989694;28;20041;-67
2023/01/16 04:33:23;;;;;;;0.50;0.50;;;;;;;7.64;87.41;98666.84;4993712;28;20113;-67
2023/01/16 04:35:49;;;;;;;0.95;0.95;;;;;;;7.79;88.00;98671.03;4988086;28;20024;-67
2023/01/16 04:38:14;;;;;;;1.90;1.05;;;;;;;7.94;87.49;98671.75;4992415;28;20105;-67
2023/01/16 04:40:40;;;;;;;1.85;0.40;;;;;;;8.07;86.83;98667.53;4993230;28;20185;-67
2023/01/16 04:43:05;;;;;;;1.60;0.60;;;;;;;8.00;86.71;98665.63;4992655;28;20030;-67
2023/01/16 04:45:31;;;;;;;1.60;0.57;;;;;;;7.90;85.95;98654.91;4991878;28;20105;-67
2023/01/16 04:47:56;;;;;;;1.48;0.70;;;;;;;7.95;86.71;98646.50;4994609;28;20023;-67
2023/01/16 04:50:22;;;;;;;0.40;0.40;;;;;;;7.95;86.64;98641.91;4994528;28;20049;-67
2023/01/16 04:52:47;;;;;;;0.80;0.63;;;;;;;7.96;86.44;98639.97;4992876;28;20038;-67
2023/01/16 04:55:13;;;;;;;3.08;0.47;;;;;;;7.97;86.70;98639.59;4994426;28;20026;-67
2023/01/16 04:57:39;;;;;;;4.47;0.50;;;;;;;8.10;86.29;98639.94;5000838;28;20026;-67
2023/01/16 05:00:07;;;;;;;0.32;0.30;;;;;;;8.13;85.91;98636.47;5000596;28;20537;-67
2023/01/16 05:02:32;;;;;;;0.47;0.47;;;;;;;8.03;86.16;98634.63;4993279;28;20489;-67
2023/01/16 05:04:58;;;;;;;3.78;0.82;;;;;;;7.92;86.25;98641.91;4990953;28;20046;-67
2023/01/16 05:07:26;;;;;;;1.27;0.70;;;;;;;8.08;85.45;98634.19;4994681;28;20109;-67
2023/01/16 05:09:52;;;;;;;3.58;0.47;;;;;;;8.12;85.33;98632.28;4994032;28;20026;-67
2023/01/16 05:12:17;;;;;;;1.00;0.65;;;;;;;7.94;85.62;98626.19;5025040;23;20038;-68
2023/01/16 05:14:43;;;;;;;2.80;0.63;;;;;;;7.83;86.60;98634.28;5040433;28;20033;-68
2023/01/16 05:17:08;;;;;;;0.57;0.40;;;;;;;7.51;87.18;98630.09;5030033;28;20121;-68
2023/01/16 05:19:33;;;;;;;0.82;0.82;;;;;;;7.50;87.11;98620.53;5049048;28;20052;-68
2023/01/16 05:21:59;;;;;;;0.63;0.63;;;;;;;7.46;87.25;98625.91;5028887;28;20045;-68
2023/01/16 05:24:24;;;;;;;3.17;0.52;;;;;;;7.54;87.69;98621.28;5031271;28;20067;-69
2023/01/16 05:26:50;;;;;;;6.60;0.60;;;;;;;7.60;87.82;98622.44;5031713;28;20029;-68
2023/01/16 05:29:15;;;;;;;1.80;0.77;;;;;;;7.83;86.17;98612.06;5028715;28;20174;-68
2023/01/16 05:31:40;;;;;;;1.67;0.43;;;;;;;7.70;86.05;98619.00;5025070;28;20060;-68
2023/01/16 05:34:08;;;;;;;0.40;0.40;;;;;;;7.62;87.14;98609.44;5032856;28;20520;-68
2023/01/16 05:36:33;;;;;;;0.50;0.50;;;;;;;7.70;86.76;98611.72;5018057;28;20037;-68
2023/01/16 05:38:59;;;;;;;0.40;0.40;;;;;;;7.64;86.07;98613.25;5013015;28;20095;-68
2023/01/16 05:41:24;;;;;;;1.98;0.73;;;;;;;7.79;85.85;98620.13;5028076;28;20037;-68
2023/01/16 05:43:49;;;;;;;0.95;0.60;;;;;;;7.68;85.96;98611.34;5013946;28;20049;-68
2023/01/16 05:46:15;;;;;;;0.40;0.40;;;;;;;7.62;86.36;98612.09;5012701;28;20053;-68
2023/01/16 05:48:40;;;;;;;1.38;0.55;;;;;;;7.48;87.17;98601.41;5011443;28;20044;-68
2023/01/16 05:51:06;;;;;;;0.70;0.50;;;;;;;7.63;86.51;98603.69;5010949;28;20083;-68
2023/01/16 05:53:32;;;;;;;0.60;0.60;;;;;;;7.58;86.58;98603.31;5010130;28;20157;-68
2023/01/16 05:55:58;;;;;;;3.42;0.52;;;;;;;7.68;85.99;98602.53;5016755;28;20030;-69
2023/01/16 05:58:24;;;;;;;0.50;0.50;;;;;;;7.79;86.06;98595.22;5020854;28;20033;-68
2023/01/16 06:00:49;;;;;;;0.85;0.73;;;;;;;7.70;87.17;98592.19;4995258;28;20049;-68
2023/01/16 06:03:15;;;;;;;4.40;0.63;;;;;;;7.65;87.53;98587.22;5014079;28;20410;-68
2023/01/16 06:05:41;;;;;;;0.43;0.40;;;;;;;7.66;88.55;98580.72;5011312;28;20034;-68
2023/01/16 06:08:07;;;;;;;0.52;0.47;;;;;;;7.79;88.12;98584.50;5024564;28;20038;-68
2023/01/16 06:10:32;;;;;;;0.40;0.40;;;;;;;7.81;87.94;98584.91;5006786;28;20033;-68
2023/01/16 06:13:00;;;;;;;0.55;0.55;;;;;;;7.80;88.33;98580.69;5012447;28;20453;-68
2023/01/16 06:15:25;;;;;;;0.57;0.57;;;;;;;7.33;91.21;98571.22;5012845;28;20532;-68
2023/01/16 06:17:53;;;;;;;0.80;0.57;;;;;;;7.42;91.03;98565.47;5010015;28;20112;-68
2023/01/16 06:20:19;;;;;;;1.65;0.82;;;;;;;7.48;91.01;98564.69;5011021;28;20509;-68
2023/01/16 06:22:45;;;;;;;1.30;0.60;;;;;;;7.40;91.18;98552.47;5016289;28;20124;-68
2023/01/16 06:25:11;;;;;;;0.30;0.30;;;;;;;7.38;91.53;98562.78;5001342;28;20033;-68
2023/01/16 06:27:36;;;;;;;2.45;0.43;;;;;;;7.41;91.03;98567.38;5015560;28;20030;-68
2023/01/16 06:30:03;;;;;;;0.95;0.60;;;;;;;7.28;91.50;98550.94;5009215;28;20048;-68
2023/01/16 06:32:28;;;;;;;6.43;0.82;;;;;;;7.35;91.50;98560.91;5017524;28;20040;-68
2023/01/16 06:34:54;;;;;;;0.55;0.43;;;;;;;7.28;90.47;98552.84;5008638;28;20034;-69
2023/01/16 06:37:19;;;;;;;0.52;0.52;;;;;;;7.38;90.61;98548.63;5011338;28;20049;-68
2023/01/16 06:39:44;;;;;;;0.77;0.70;;;;;;;7.52;90.70;98549.38;5007122;28;20038;-68
2023/01/16 06:42:10;;;;;;;0.40;0.40;;;;;;;7.55;90.26;98543.25;5008528;28;20042;-68
2023/01/16 06:44:35;;;;;;;3.60;0.60;;;;;;;7.42;90.72;98544.81;5008954;28;20421;-68
2023/01/16 06:47:01;;;;;;;0.55;0.40;;;;;;;7.37;90.16;98531.06;5025397;28;20598;-68
2023/01/16 06:49:27;;;;;;;0.38;0.38;;;;;;;7.45;90.37;98519.19;5023714;28;20485;-69
2023/01/16 06:51:53;;;;;;;0.65;0.65;;;;;;;7.47;90.83;98531.03;5001264;28;20080;-69
2023/01/16 06:54:18;;;;;;;0.65;0.43;;;;;;;7.46;90.13;98534.09;5011778;28;20063;-68
2023/01/16 06:56:44;;;;;;;0.40;0.40;;;;;;;7.20;90.84;98521.91;5009560;28;20044;-68
2023/01/16 06:59:09;;;;;;;0.77;0.70;;;;;;;7.43;90.49;98526.84;5016703;28;20095;-69
2023/01/16 07:01:35;;;;;;;0.50;0.50;;;;;;;7.48;90.42;98535.25;5025438;28;20040;-69
2023/01/16 07:04:03;;;;;;;0.93;0.35;;;;;;;7.65;89.50;98520.25;5008822;28;20033;-68
2023/01/16 07:06:28;;;;;;;0.40;0.40;;;;;;;7.58;89.43;98520.28;5018700;28;20183;-70
2023/01/16 07:08:54;;;;;;;0.40;0.40;;;;;;;7.70;88.73;98514.53;5018773;28;20112;-69
2023/01/16 07:11:20;;;;;;;0.45;0.45;;;;;;;7.63;89.19;98501.13;5013548;28;20030;-68
2023/01/16 07:13:45;;;;;;;0.47;0.40;;;;;;;7.57;89.02;98500.03;5011146;28;20034;-69
2023/01/16 07:24:30;;;;;;;2.63;0.82;;;;;;;7.41;88.75;98494.34;5009228;28;20318;-68
2023/01/16 07:27:00;;;;;;;0.45;0.45;;;;;;;7.41;88.69;98489.75;5001451;28;20034;-69
2023/01/16 07:29:28;;;;;;;1.33;0.60;;;;;;;7.54;89.03;98487.41;5009861;28;20041;-68
2023/01/16 07:31:55;;;;;;;0.43;0.43;;;;;;;7.43;88.61;98494.72;5018777;28;20056;-68
2023/01/16 07:34:22;;;;;;;0.68;0.68;;;;;;;7.57;86.79;98484.72;5022084;28;21160;-68
2023/01/16 07:36:47;;;;;;;0.93;0.40;;;;;;;7.16;88.36;98497.06;5006119;28;20018;-68
2023/01/16 07:39:13;;;;;;;1.20;0.60;;;;;;;7.19;88.35;98485.59;5004821;28;21407;-69
2023/01/16 07:41:38;;;;;;;0.30;0.30;;;;;;;7.32;88.62;98474.06;5003842;28;20041;-69
2023/01/16 07:44:06;;;;;;;0.30;0.30;;;;;;;7.18;89.14;98478.72;5016347;28;20091;-68
2023/01/16 07:46:32;;;;;;;2.00;0.93;;;;;;;7.20;88.72;98469.13;5006601;28;20470;-68
2023/01/16 07:48:58;;;;;;;0.50;0.40;;;;;;;7.26;88.30;98480.19;5004750;28;20113;-69
2023/01/16 07:51:24;;;;;;;0.57;0.57;;;;;;;7.03;89.17;98469.94;5005782;28;20075;-68
2023/01/16 07:53:49;;;;;;;0.98;0.47;;;;;;;7.09;89.66;98471.06;5008981;28;20026;-69
2023/01/16 07:56:15;;;;;;;0.50;0.43;;;;;;;7.31;88.90;98469.13;5024057;28;20057;-69
2023/01/16 07:58:42;;;;;;;0.32;0.32;;;;;;;7.45;87.40;98468.31;5008691;28;20157;-69
2023/01/16 08:01:09;;;;;;;1.13;0.63;;;;;;;7.45;87.33;98468.31;5003225;28;20038;-69
2023/01/16 08:03:35;;;;;;;0.50;0.50;;;;;;;7.45;87.11;98458.38;4986629;28;20179;-68
2023/01/16 08:06:02;;;;;;;2.40;0.40;;;;;;;7.43;87.45;98449.19;4989913;28;20638;-69
2023/01/16 08:08:28;;;;;;;1.85;0.52;;;;;;;7.36;87.82;98444.63;5007877;28;20045;-68
2023/01/16 08:10:55;;;;;;;0.38;0.30;;;;;;;7.08;88.73;98439.34;5002783;28;20652;-69
2023/01/16 08:13:20;;;;;;;0.52;0.50;;;;;;;7.13;88.68;98436.28;5006970;28;20401;-68
2023/01/16 08:15:46;;;;;;;1.15;0.70;;;;;;;7.22;87.93;98432.03;5024049;28;20041;-69
2023/01/16 08:18:13;;;;;;;0.35;0.35;;;;;;;7.16;88.14;98436.25;5001223;28;20754;-68
2023/01/16 08:20:38;;;;;;;1.00;0.63;;;;;;;7.06;88.11;98436.31;5020435;28;20041;-68
2023/01/16 08:23:04;;;;;;;0.30;0.30;;;;;;;7.16;88.02;98432.84;5011263;28;20031;-68
2023/01/16 08:25:29;;;;;;;0.30;0.30;;;;;;;6.98;87.60;98434.78;4999539;28;20623;-68
2023/01/16 08:27:54;;;;;;;0.40;0.40;;;;;;;6.72;89.51;98427.94;5007376;28;20544;-68
2023/01/16 08:30:20;;;;;;;0.40;0.40;;;;;;;6.82;89.73;98426.38;5001317;28;20041;-68
2023/01/16 08:32:46;;;;;;;2.08;0.38;;;;;;;6.74;89.47;98425.63;5000049;28;20038;-68
2023/01/16 08:35:11;;;;;;;1.60;0.60;;;;;;;6.69;89.74;98438.63;5001101;28;20022;-68
2023/01/16 08:37:37;;;;;;;0.45;0.40;;;;;;;6.79;88.71;98425.28;5001454;28;20040;-68
2023/01/16 08:40:04;;;;;;;0.50;0.50;;;;;;;6.78;89.61;98421.06;5004237;28;20038;-69
2023/01/16 08:53:29;;;;;;;0.50;0.50;;;;;;;7.10;88.34;98399.59;5007080;28;20820;-68
2023/01/16 08:55:55;;;;;;;1.15;1.05;;;;;;;7.04;88.56;98395.78;5022238;28;20109;-68
2023/01/16 08:58:21;;;;;;;0.20;0.20;;;;;;;7.08;88.61;98381.22;5021352;28;20576;-68
2023/01/16 09:00:47;;;;;;;0.57;0.40;;;;;;;7.25;88.18;98385.00;5002506;28;20057;-68
2023/01/16 09:03:13;;;;;;;0.57;0.40;;;;;;;7.40;87.77;98386.47;5008565;28;20041;-69
2023/01/16 09:05:39;;;;;;;0.30;0.30;;;;;;;7.63;86.69;98378.72;5022640;28;20049;-68
2023/01/16 09:08:04;;;;;;;0.38;0.38;;;;;;;7.58;86.18;98381.03;5006526;28;20069;-68
2023/01/16 09:10:30;;;;;;;0.38;0.38;;;;;;;7.60;86.13;98376.06;5007143;28;20030;-68
2023/01/16 09:15:40;;;;;;;1.02;0.57;;;;;;;7.83;85.24;98366.34;5017084;28;20030;-68
2023/01/16 09:18:05;;;;;;;0.50;0.50;;;;;;;7.65;84.87;98362.25;5015245;28;20391;-68
2023/01/16 09:20:31;;;;;;;0.43;0.43;;;;;;;7.64;85.45;98363.41;5011529;28;20034;-68
2023/01/16 09:22:58;;;;;;;0.38;0.38;;;;;;;7.77;84.69;98356.44;5013262;28;20056;-68
2023/01/16 09:25:24;;;;;;;0.85;0.52;;;;;;;7.59;84.60;98345.09;5014448;28;20459;-69
2023/01/16 09:27:49;;;;;;;2.05;0.60;;;;;;;7.72;85.03;98338.13;5019298;28;20037;-68
2023/01/16 09:30:14;;;;;;;2.88;0.50;;;;;;;7.82;84.33;98327.31;5016107;28;20038;-69
2023/01/16 09:32:40;;;;;;;0.32;0.32;;;;;;;7.72;84.82;98338.13;5014397;28;20040;-68
2023/01/16 09:35:06;;;;;;;0.95;0.52;;;;;;;7.71;84.77;98331.97;5014775;28;20556;-68
2023/01/16 09:37:31;;;;;;;0.43;0.40;;;;;;;7.74;84.50;98341.91;5014781;28;20135;-68
2023/01/16 09:39:56;;;;;;;0.52;0.50;;;;;;;7.83;85.05;98342.25;5015054;28;20379;-68
2023/01/16 09:45:59;;;;;;;0.63;0.63;;;;;;;7.69;84.73;98333.53;5007387;28;20044;-68
2023/01/16 09:48:33;;;;;;;1.17;1.08;;;;;;;7.37;86.07;98314.22;4990829;28;20114;-68
2023/01/16 09:51:07;;;;;;;0.73;0.55;;;;;;;7.48;86.19;98312.22;4983828;28;20095;-68
2023/01/16 09:59:18;;;;;;;0.52;0.52;;;;;;;7.42;85.68;98297.72;4989025;28;20333;-68
2023/01/16 10:01:48;;;;;;;0.50;0.50;;;;;;;7.57;85.67;98291.16;4991249;28;20035;-68
2023/01/16 10:04:23;;;;;;;0.50;0.50;;;;;;;7.27;86.58;98276.41;4991647;28;20053;-68
2023/01/16 10:07:03;;;;;;;0.65;0.65;;;;;;;7.60;86.09;98282.31;4990414;28;20333;-68
2023/01/16 10:09:38;;;;;;;0.43;0.43;;;;;;;7.40;86.17;98283.97;4985898;28;20030;-68
2023/01/16 10:12:08;;;;;;;1.23;0.60;;;;;;;7.50;86.04;98275.88;4987440;28;20074;-68
2023/01/16 10:14:53;;;;;;;0.57;0.47;;;;;;;7.40;85.92;98275.94;5006846;28;20119;-68
2023/01/16 10:17:27;;;;;;;2.70;0.75;;;;;;;7.40;86.15;98260.66;4988178;28;20525;-68
2023/01/16 10:20:27;;;;;;;0.50;0.50;;;;;;;7.32;86.18;98254.56;5007154;28;20042;-68
2023/01/16 10:23:15;;;;;;;0.50;0.47;;;;;;;7.32;87.36;98262.59;4989366;28;20058;-68
2023/01/16 10:25:58;;;;;;;0.60;0.60;;;;;;;7.52;87.03;98256.75;5014701;28;20410;-68
2023/01/16 10:28:39;;;;;;;0.40;0.40;;;;;;;7.38;86.36;98243.44;5028090;28;20033;-68
2023/01/16 10:31:32;;;;;;;0.52;0.52;;;;;;;7.35;86.27;98238.88;5007811;28;20569;-68
2023/01/16 10:34:03;;;;;;;1.55;0.70;;;;;;;7.68;86.04;98235.59;5014686;28;20034;-68
2023/01/16 10:36:37;;;;;;;0.70;0.70;;;;;;;7.89;85.10;98230.81;5028546;28;20474;-69
2023/01/16 10:39:03;;;;;;;3.50;0.75;;;;;;;7.87;84.47;98232.38;5023688;28;20853;-68
2023/01/16 10:50:07;;;;;;;1.23;0.65;;;;;;;8.11;83.40;98209.94;5008560;28;20076;-68
2023/01/16 10:52:33;;;;;;;4.03;0.80;;;;;;;8.29;84.15;98199.06;5019496;28;20064;-68
2023/01/16 10:54:59;;;;;;;0.73;0.52;;;;;;;8.25;82.52;98192.97;5009956;28;20044;-68
2023/01/16 10:57:26;;;;;;;1.33;0.47;;;;;;;8.36;81.94;98205.13;5010289;28;20041;-68
2023/01/16 10:59:57;;;;;;;0.60;0.50;;;;;;;8.57;82.73;98182.66;5009373;28;20512;-68
2023/01/16 11:02:54;;;;;;;0.45;0.45;;;;;;;8.55;80.55;98163.50;5023461;28;20041;-68
2023/01/16 11:05:46;;;;;;;0.40;0.40;;;;;;;8.37;81.12;98169.09;5007947;28;20074;-68
2023/01/16 11:08:18;;;;;;;0.40;0.40;;;;;;;8.37;82.04;98149.56;5021386;28;20436;-68
2023/01/16 11:10:49;;;;;;;0.50;0.50;;;;;;;8.53;81.34;98147.84;5025119;28;20490;-68
2023/01/16 11:18:55;;;;;;;0.30;0.30;;;;;;;8.38;80.94;98108.19;5030764;28;20029;-67
2023/01/16 11:21:27;;;;;;;0.73;0.40;;;;;;;8.48;79.73;98105.34;5025009;28;20116;-67
2023/01/16 11:24:03;;;;;;;0.55;0.55;;;;;;;8.47;80.19;98093.13;5011250;28;20042;-67
2023/01/16 11:26:30;;;;;;;3.50;0.60;;;;;;;8.56;79.83;98079.97;5011205;28;20041;-67
2023/01/16 11:28:57;;;;;;;3.45;0.43;;;;;;;8.55;79.30;98083.81;5011164;28;20042;-67
2023/01/16 11:31:26;;;;;;;0.30;0.30;;;;;;;8.63;79.58;98071.81;5008150;28;20034;-67
2023/01/16 11:34:00;;;;;;;3.53;0.70;;;;;;;8.42;79.39;98072.09;5009734;28;20498;-67
2023/01/16 11:36:49;;;;;;;0.40;0.40;;;;;;;8.66;78.88;98062.97;5011074;28;20088;-67
2023/01/16 11:39:22;;;;;;;2.53;0.35;;;;;;;8.85;77.52;98061.53;4984951;28;20047;-67
2023/01/16 11:41:49;;;;;;;;;;;;;;;8.57;78.93;98035.13;4983488;28;20570;-67
2023/01/16 11:47:05;;;;;;;0.82;0.55;;;;;;;8.74;78.69;98021.47;4989021;28;20108;-67
2023/01/16 11:49:40;;;;;;;0.40;0.40;;;;;;;8.77;78.00;98009.13;4984780;28;20026;-67
2023/01/16 11:52:12;;;;;;;0.30;0.30;;;;;;;8.88;78.36;98005.09;4987904;28;20042;-67
2023/01/16 11:54:38;;;;;;;0.22;0.22;;;;;;;8.79;79.02;97993.38;4988402;28;20046;-67
2023/01/16 11:57:15;;;;;;;2.60;0.65;;;;;;;8.78;78.10;97989.19;4988645;28;20052;-67
2023/01/16 12:00:06;;;;;;;0.40;0.40;;;;;;;8.76;78.18;97986.94;4988679;28;20038;-67
2023/01/16 12:03:05;;;;;;;0.30;0.30;;;;;;;8.92;77.59;97978.97;4967481;28;20062;-67
2023/01/16 12:05:54;;;;;;;0.52;0.50;;;;;;;8.81;77.73;97977.63;4979026;28;20030;-67
2023/01/16 12:08:57;;;;;;;3.10;0.30;;;;;;;8.72;77.72;97964.75;4988012;28;20107;-67
2023/01/16 12:11:26;;;;;;;0.30;0.30;;;;;;;8.87;78.00;97949.94;4984655;28;20487;-67
2023/01/16 12:17:01;;;;;;;0.95;0.60;;;;;;;8.84;78.08;97932.00;4995061;28;20466;-67
2023/01/16 12:19:54;;;;;;;0.50;0.40;;;;;;;8.92;76.89;97936.03;5002431;28;20448;-67
2023/01/16 12:22:27;;;;;;;0.65;0.40;;;;;;;9.09;76.30;97915.44;5007552;28;20045;-67
2023/01/16 12:25:04;;;;;;;0.60;0.50;;;;;;;8.92;77.43;97919.94;5007532;28;20363;-66
2023/01/16 12:28:09;;;;;;;0.40;0.40;;;;;;;8.58;78.01;97905.22;5010366;28;20030;-67
2023/01/16 12:31:21;;;;;;;0.30;0.30;;;;;;;8.53;78.39;97903.00;5009160;28;20117;-67
2023/01/16 12:34:18;;;;;;;0.57;0.55;;;;;;;8.57;78.74;97887.63;5004393;28;20075;-67
2023/01/16 12:36:47;;;;;;;0.90;0.50;;;;;;;8.68;78.20;97886.28;4998979;28;20164;-67
2023/01/16 12:39:35;;;;;;;1.63;0.38;;;;;;;8.79;77.93;97876.09;5010321;28;20076;-67
2023/01/16 12:45:35;;;;;;;0.75;0.45;;;;;;;8.65;76.12;97849.53;4998077;28;20045;-67
2023/01/16 12:48:01;;;;;;;0.50;0.40;;;;;;;8.80;76.48;97850.81;5012661;28;20406;-67
2023/01/16 12:50:45;;;;;;;0.30;0.30;;;;;;;8.77;76.87;97837.44;5013781;28;20033;-67
2023/01/16 12:53:35;;;;;;;0.30;0.30;;;;;;;8.80;75.44;97823.97;5013426;28;20494;-67
2023/01/16 12:56:24;;;;;;;3.25;0.68;;;;;;;8.82;75.35;97823.56;5006354;28;20088;-67